Nearby METAR Reports

 

LBGO - Gorna Orechovist, Bulgaria
Distance from station: NE 57km
Updated: 19/01/2020 19:00
Overcast
Overcast
 Wind from NW
Wind: NW 6 km/h
Temperature: 1°C
Dew Point: 1°C
Humidity: 100%
Barometer: 1031 hPa
Clouds: Overcast
Visibility: 9 km
Cloud details: Partly cloudy 366 m
Mostly cloudy 640 m
Overcast 1341 m
2020/01/19 17:00 LBGO 191700Z AUTO 31003KT 9000 SCT012 BKN021 OVC044 01/01 Q1031